Flag for USA

Past Weather in Ocala, Florida, USA — Yesterday and Last 2 Weeks

Currently: 80 °F. Scattered clouds. (Weather station: Ocala Municipal, USA). See more current weather

Past Weather in Ocala — Graph

°F

Ocala Temperature Yesterday

Maximum temperature yesterday: 76 °F (at 2:51 pm)
Minimum temperature yesterday: 56 °F (at 1:51 am)
Average temperature yesterday: 64 °F

High & Low Weather Summary for the Past Weeks

 TemperatureHumidityPressure
High78 °F (Jan 25, 11:51 am)100% (Jan 14, 12:51 am)30.41 "Hg (Jan 14, 12:51 am)
Low28 °F (Jan 19, 6:51 am)24% (Jan 19, 2:51 pm)29.74 "Hg (Jan 15, 3:51 pm)
Average55 °F80%30.12 "Hg
* Reported Jan 10 11:51 am — Jan 25 11:51 am, Ocala. Weather by CustomWeather, © 2021

Note: Actual official high and low records may vary slightly from our data, if they occured in-between our weather recording intervals... More about our weather records

Ocala Weather History for the Previous 24 Hours

Scroll right to see more
 ConditionsComfort  
Time TempWeatherWind HumidityBarometerVisibility
11:51 am
Mon, Jan 25
78 °FScattered clouds.14 mph64%30.06 "Hg10 mi
10:58 am75 °FScattered clouds.10 mph74%30.07 "Hg10 mi
10:22 am73 °FBroken clouds.8 mph78%30.07 "Hg10 mi
9:59 am70 °FLow clouds.8 mph88%30.08 "Hg10 mi
8:51 am67 °FLow clouds.7 mph100%30.07 "Hg10 mi
7:51 am66 °FLow clouds.6 mph100%30.06 "Hg10 mi
6:51 am66 °FLow clouds.8 mph100%30.06 "Hg7 mi
5:51 am66 °FLow clouds.3 mph100%30.06 "Hg10 mi
4:51 am66 °FPassing clouds.3 mph96%30.07 "Hg10 mi
4:44 am64 °FPassing clouds.3 mph100%30.07 "Hg10 mi
4:35 am64 °FPassing clouds.3 mph100%30.07 "Hg10 mi
3:51 am65 °FPassing clouds.3 mph100%30.08 "Hg10 mi
3:10 am64 °FPassing clouds.5 mph100%30.08 "Hg10 mi
2:51 am64 °FPassing clouds.3 mph97%30.09 "Hg10 mi
2:31 am63 °FPassing clouds.No wind100%30.09 "Hg10 mi
2:22 am63 °FPassing clouds.No wind100%30.09 "Hg10 mi
1:51 am63 °FPassing clouds.No wind100%30.09 "Hg10 mi
12:51 am64 °FClear.3 mph97%30.10 "Hg10 mi
11:51 pm
Sun, Jan 24
64 °FPassing clouds.5 mph97%30.11 "Hg10 mi
10:51 pm64 °FClear.3 mph97%30.13 "Hg10 mi
9:51 pm64 °FClear.No wind97%30.13 "Hg10 mi
8:51 pm62 °FClear.7 mph96%30.13 "Hg10 mi
7:51 pm66 °FClear.No wind90%30.11 "Hg10 mi
6:51 pm69 °FClear.5 mph81%30.11 "Hg10 mi
5:51 pm72 °FPassing clouds.6 mph76%30.11 "Hg10 mi
4:51 pm75 °FScattered clouds.6 mph69%30.10 "Hg10 mi
3:51 pm76 °FPartly sunny.7 mph64%30.09 "Hg10 mi
2:51 pm76 °FScattered clouds.6 mph64%30.09 "Hg10 mi
1:51 pm73 °FPassing clouds.No wind71%30.11 "Hg10 mi
Weather by CustomWeather, © 2021

See weather overview